Time;durP1;ratioP1;P1;durP2;ratioP2;P2;SDS_P1;SDS_P2;PMS_P1;PMS_P2;Temp;Humidity;BMP_temperature;BMP_pressure;BME280_temperature;BME280_humidity;BME280_pressure;Samples;Min_cycle;Max_cycle;Signal;HPM_P1;HPM_P2
2023/03/16 00:00:32;;;;;;;;;;;17.80;56.50;;;;;;5067468;28;42797;-89
2023/03/16 00:02:58;;;;;;;;;;;18.00;56.60;;;;;;5067167;28;42884;-91
2023/03/16 00:05:24;;;;;;;;;;;17.90;56.50;;;;;;5048276;28;42944;-89
2023/03/16 00:07:50;;;;;;;;;;;17.90;56.60;;;;;;5047250;28;45453;-89
2023/03/16 00:10:16;;;;;;;;;;;17.80;56.60;;;;;;5067011;28;42952;-89
2023/03/16 00:12:42;;;;;;;;;;;17.80;56.70;;;;;;5067341;28;43776;-89
2023/03/16 00:15:08;;;;;;;;;;;18.00;56.80;;;;;;5066835;28;42891;-89
2023/03/16 00:17:34;;;;;;;;;;;17.90;56.70;;;;;;5048900;28;44785;-90
2023/03/16 00:20:07;;;;;;;;;;;18.00;56.80;;;;;;5067206;28;43119;-89
2023/03/16 00:22:32;;;;;;;;;;;17.80;56.80;;;;;;5064918;28;45413;-89
2023/03/16 00:24:58;;;;;;;;;;;17.90;56.90;;;;;;5066967;28;42869;-89
2023/03/16 00:27:25;;;;;;;;;;;18.00;57.00;;;;;;5066221;28;43038;-89
2023/03/16 00:30:02;;;;;;;;;;;17.90;57.00;;;;;;5048034;28;42932;-91
2023/03/16 00:32:32;;;;;;;;;;;17.90;57.00;;;;;;5064705;28;43068;-89
2023/03/16 00:34:58;;;;;;;;;;;17.80;57.10;;;;;;5066634;28;42946;-90
2023/03/16 00:37:24;;;;;;;;;;;17.90;57.10;;;;;;5066408;28;43652;-89
2023/03/16 00:39:59;;;;;;;;;;;17.80;57.10;;;;;;5066066;28;42959;-90
2023/03/16 00:42:26;;;;;;;;;;;17.90;57.00;;;;;;5046262;28;44509;-90
2023/03/16 00:44:56;;;;;;;;;;;17.80;57.20;;;;;;5066643;28;43044;-90
2023/03/16 00:47:28;;;;;;;;;;;17.90;57.30;;;;;;5048800;28;64598;-90
2023/03/16 00:49:54;;;;;;;;;;;17.90;57.30;;;;;;5066333;28;42958;-89
2023/03/16 00:52:23;;;;;;;;;;;17.90;57.40;;;;;;5065351;28;43603;-89
2023/03/16 00:54:51;;;;;;;;;;;17.60;56.40;;;;;;5047268;28;43291;-90
2023/03/16 00:57:21;;;;;;;;;;;17.90;57.50;;;;;;5065319;28;43758;-90
2023/03/16 00:59:50;;;;;;;;;;;17.90;56.60;;;;;;5047281;28;43304;-90
2023/03/16 01:02:23;;;;;;;;;;;18.00;57.60;;;;;;5047789;28;44599;-89
2023/03/16 01:04:50;;;;;;;;;;;17.80;57.60;;;;;;5066212;28;43062;-90
2023/03/16 01:07:16;;;;;;;;;;;18.00;57.80;;;;;;5065659;28;43546;-90
2023/03/16 01:09:42;;;;;;;;;;;17.80;57.60;;;;;;5048029;28;42955;-90
2023/03/16 01:12:09;;;;;;;;;;;18.00;57.80;;;;;;5066611;28;43013;-90
2023/03/16 01:14:35;;;;;;;;;;;17.90;57.80;;;;;;5065494;28;42904;-91
2023/03/16 01:17:01;;;;;;;;;;;16.60;57.20;;;;;;5047267;28;44596;-90
2023/03/16 01:19:27;;;;;;;;;;;18.00;58.00;;;;;;5065096;28;43099;-90
2023/03/16 01:21:53;;;;;;;;;;;17.80;57.80;;;;;;5046991;28;45537;-90
2023/03/16 01:24:18;;;;;;;;;;;18.00;58.00;;;;;;5065122;28;43057;-90
2023/03/16 01:26:44;;;;;;;;;;;18.00;58.00;;;;;;5065682;28;43144;-90
2023/03/16 01:29:11;;;;;;;;;;;17.90;58.00;;;;;;5046033;28;42984;-90
2023/03/16 01:31:37;;;;;;;;;;;17.80;57.90;;;;;;5062672;28;45603;-90
2023/03/16 01:34:15;;;;;;;;;;;17.90;58.20;;;;;;5065618;28;43035;-91
2023/03/16 01:36:43;;;;;;;;;;;17.90;57.20;;;;;;5047059;28;44222;-89
2023/03/16 01:39:10;;;;;;;;;;;18.00;58.20;;;;;;5066131;28;42954;-90
2023/03/16 01:41:35;;;;;;;;;;;17.90;58.20;;;;;;5065753;28;43659;-90
2023/03/16 01:44:23;;;;;;;;;;;17.70;58.30;;;;;;5046906;28;42936;-90
2023/03/16 01:46:48;;;;;;;;;;;17.90;58.30;;;;;;5047475;28;44444;-89
2023/03/16 01:49:55;;;;;;;;;;;17.90;58.40;;;;;;5064366;28;43046;-89
2023/03/16 01:52:23;;;;;;;;;;;17.90;58.00;;;;;;4963610;28;43071;-89
2023/03/16 01:54:51;;;;;;;;;;;17.80;58.50;;;;;;4963798;28;43056;-90
2023/03/16 01:57:31;;;;;;;;;;;;;;;;;;;;;
2023/03/16 02:00:06;;;;;;;;;;;17.70;58.10;;;;;;4963320;28;67664;-91
2023/03/16 02:02:37;;;;;;;;;;;17.80;58.60;;;;;;4945819;28;44450;-90
2023/03/16 02:05:13;;;;;;;;;;;17.90;57.80;;;;;;4963767;28;42950;-90
2023/03/16 02:07:45;;;;;;;;;;;17.80;58.30;;;;;;4963255;28;42961;-90
2023/03/16 02:10:12;;;;;;;;;;;17.90;57.80;;;;;;4946792;28;42971;-90
2023/03/16 02:12:56;;;;;;;;;;;17.80;58.80;;;;;;4963742;28;43156;-90
2023/03/16 02:15:26;;;;;;;;;;;17.90;58.80;;;;;;4946495;28;43053;-90
2023/03/16 02:17:56;;;;;;;;;;;17.90;58.00;;;;;;4963219;28;43741;-90
2023/03/16 02:20:37;;;;;;;;;;;18.00;58.00;;;;;;4946599;28;43084;-90
2023/03/16 02:23:17;;;;;;;;;;;17.80;58.00;;;;;;5011330;28;43917;-91
2023/03/16 02:26:01;;;;;;;;;;;18.00;58.10;;;;;;5046010;28;42955;-91
2023/03/16 02:28:31;;;;;;;;;;;17.80;58.10;;;;;;5063858;28;43053;-90
2023/03/16 02:31:00;;;;;;;;;;;17.90;59.10;;;;;;5046607;28;43152;-90
2023/03/16 02:33:33;;;;;;;;;;;17.90;58.20;;;;;;5046559;28;45830;-90
2023/03/16 02:35:59;;;;;;;;;;;18.00;59.20;;;;;;5063797;28;43030;-91
2023/03/16 02:38:34;;;;;;;;;;;;;;;;;;;;;
2023/03/16 02:41:09;;;;;;;;;;;17.90;59.10;;;;;;5062351;28;67671;-91
2023/03/16 02:43:36;;;;;;;;;;;17.90;59.20;;;;;;5065266;28;43103;-90
2023/03/16 02:46:03;;;;;;;;;;;17.90;59.30;;;;;;5064662;28;42895;-90
2023/03/16 02:48:54;;;;;;;;;;;17.90;59.30;;;;;;5046208;28;44446;-90
2023/03/16 02:51:23;;;;;;;;;;;17.70;58.30;;;;;;5046262;28;43136;-90
2023/03/16 02:53:48;;;;;;;;;;;17.80;58.40;;;;;;5064488;28;43014;-91
2023/03/16 02:56:14;;;;;;;;;;;17.90;59.40;;;;;;5056582;28;42960;-90
2023/03/16 02:58:39;;;;;;;;;;;18.00;59.40;;;;;;5062700;28;45309;-90
2023/03/16 03:01:05;;;;;;;;;;;18.00;59.50;;;;;;5064742;28;42822;-90
2023/03/16 03:03:38;;;;;;;;;;;18.00;59.50;;;;;;5045895;28;44144;-90
2023/03/16 03:06:07;;;;;;;;;;;18.00;59.50;;;;;;5046259;28;42944;-90
2023/03/16 03:08:32;;;;;;;;;;;17.90;58.60;;;;;;5064488;28;42926;-90
2023/03/16 03:10:58;;;;;;;;;;;17.80;59.50;;;;;;5064594;28;43545;-90
2023/03/16 03:13:23;;;;;;;;;;;18.10;59.70;;;;;;5064756;28;43100;-90
2023/03/16 03:15:49;;;;;;;;;;;18.00;59.60;;;;;;5049480;28;43219;-90
2023/03/16 03:18:20;;;;;;;;;;;18.00;59.60;;;;;;5049689;28;44302;-90
2023/03/16 03:20:46;;;;;;;;;;;18.00;59.70;;;;;;5049122;28;42993;-90
2023/03/16 03:23:11;;;;;;;;;;;18.00;59.70;;;;;;5067928;28;43463;-90
2023/03/16 03:25:37;;;;;;;;;;;17.90;59.60;;;;;;5067952;28;42979;-90
2023/03/16 03:28:04;;;;;;;;;;;18.00;59.70;;;;;;5067240;28;43855;-90
2023/03/16 03:30:30;;;;;;;;;;;18.00;59.70;;;;;;5049233;28;43126;-90
2023/03/16 03:32:55;;;;;;;;;;;17.90;59.60;;;;;;5067188;28;42930;-91
2023/03/16 03:35:21;;;;;;;;;;;17.90;59.70;;;;;;5057305;28;42986;-90
2023/03/16 03:37:46;;;;;;;;;;;18.00;59.80;;;;;;5048200;28;45184;-90
2023/03/16 03:40:16;;;;;;;;;;;17.90;59.70;;;;;;5067580;28;42816;-90
2023/03/16 03:42:42;;;;;;;;;;;18.10;59.00;;;;;;5067724;28;43938;-90
2023/03/16 03:45:17;;;;;;;;;;;17.90;59.80;;;;;;5048448;28;43016;-90
2023/03/16 03:47:43;;;;;;;;;;;18.00;59.90;;;;;;5066593;28;43759;-90
2023/03/16 03:50:09;;;;;;;;;;;18.10;60.20;;;;;;5066485;28;42868;-91
2023/03/16 03:52:35;;;;;;;;;;;18.00;60.00;;;;;;5048422;28;43450;-91
2023/03/16 03:55:00;;;;;;;;;;;18.00;60.00;;;;;;5067581;28;42807;-90
2023/03/16 03:57:26;;;;;;;;;;;17.90;60.00;;;;;;5049056;28;44619;-90
2023/03/16 03:59:52;;;;;;;;;;;17.90;60.00;;;;;;5067191;28;42912;-90
2023/03/16 04:02:17;;;;;;;;;;;17.90;60.00;;;;;;5048583;28;45537;-90
2023/03/16 04:04:46;;;;;;;;;;;18.00;60.00;;;;;;5048776;28;43372;-90
2023/03/16 04:07:11;;;;;;;;;;;17.90;59.10;;;;;;5066359;28;43225;-90
2023/03/16 04:09:37;;;;;;;;;;;17.90;60.00;;;;;;5067542;28;42896;-90
2023/03/16 04:12:06;;;;;;;;;;;17.80;60.00;;;;;;5065995;28;43808;-91
2023/03/16 04:14:35;;;;;;;;;;;18.00;60.10;;;;;;5066921;28;43255;-91
2023/03/16 04:17:00;;;;;;;;;;;18.00;59.20;;;;;;5048654;28;45200;-90
2023/03/16 04:19:26;;;;;;;;;;;18.00;60.10;;;;;;5047813;28;43192;-91
2023/03/16 04:21:51;;;;;;;;;;;18.00;60.20;;;;;;5067000;28;43636;-90
2023/03/16 04:24:17;;;;;;;;;;;17.90;60.10;;;;;;5067029;28;42828;-90
2023/03/16 04:26:49;;;;;;;;;;;18.00;60.20;;;;;;5047958;28;45387;-90
2023/03/16 04:29:16;;;;;;;;;;;18.00;59.30;;;;;;5066808;28;43208;-90
2023/03/16 04:32:00;;;;;;;;;;;17.90;60.10;;;;;;5067156;28;43985;-90
2023/03/16 04:34:47;;;;;;;;;;;18.00;60.30;;;;;;5066774;28;42942;-90
2023/03/16 04:37:12;;;;;;;;;;;17.90;60.30;;;;;;5047352;28;45189;-90
2023/03/16 04:39:40;;;;;;;;;;;18.00;60.30;;;;;;5066364;28;43058;-91
2023/03/16 04:42:06;;;;;;;;;;;17.90;60.30;;;;;;5065954;28;43032;-91
2023/03/16 04:44:43;;;;;;;;;;;18.00;60.40;;;;;;5066347;28;42916;-90
2023/03/16 04:47:09;;;;;;;;;;;18.00;60.50;;;;;;5047450;28;44543;-91
2023/03/16 04:49:46;;;;;;;;;;;17.90;60.40;;;;;;5065733;28;42912;-91
2023/03/16 04:52:11;;;;;;;;;;;18.00;60.30;;;;;;5065533;28;42956;-90
2023/03/16 04:54:37;;;;;;;;;;;;;;;;;;5065593;28;43030;-90
2023/03/16 04:57:10;;;;;;;;;;;18.10;60.50;;;;;;5048452;28;45453;-91
2023/03/16 04:59:36;;;;;;;;;;;18.00;60.50;;;;;;5066001;28;42983;-91
2023/03/16 05:02:02;;;;;;;;;;;18.10;60.50;;;;;;5047168;28;45213;-90
2023/03/16 05:04:28;;;;;;;;;;;18.00;60.60;;;;;;5065724;28;43052;-90
2023/03/16 05:06:54;;;;;;;;;;;18.00;60.50;;;;;;5066214;28;42999;-90
2023/03/16 05:09:28;;;;;;;;;;;18.00;60.60;;;;;;5048188;28;42992;-91
2023/03/16 05:11:57;;;;;;;;;;;18.00;59.60;;;;;;5036780;28;44628;-90
2023/03/16 05:14:25;;;;;;;;;;;18.00;59.50;;;;;;5047471;28;42960;-90
2023/03/16 05:16:51;;;;;;;;;;;18.00;60.70;;;;;;5047549;28;45652;-91
2023/03/16 05:19:17;;;;;;;;;;;18.00;60.70;;;;;;5066214;28;42943;-90
2023/03/16 05:21:44;;;;;;;;;;;17.90;60.50;;;;;;5065975;28;42971;-90
2023/03/16 05:24:11;;;;;;;;;;;17.90;60.60;;;;;;5064876;28;43044;-90
2023/03/16 05:26:36;;;;;;;;;;;17.90;60.60;;;;;;5047385;28;44677;-90
2023/03/16 05:29:02;;;;;;;;;;;17.90;60.60;;;;;;5065178;28;42928;-91
2023/03/16 05:31:31;;;;;;;;;;;18.00;60.70;;;;;;5039983;28;44327;-89
2023/03/16 05:34:01;;;;;;;;;;;18.10;60.80;;;;;;5051868;28;42974;-90
2023/03/16 05:36:26;;;;;;;;;;;18.00;59.80;;;;;;5044036;28;45005;-91
2023/03/16 05:38:52;;;;;;;;;;;18.00;60.80;;;;;;5043986;28;42888;-90
2023/03/16 05:41:20;;;;;;;;;;;17.90;60.80;;;;;;5045120;28;43486;-91
2023/03/16 05:43:46;;;;;;;;;;;18.00;60.80;;;;;;5045652;28;42814;-90
2023/03/16 05:46:17;;;;;;;;;;;;;;;;;;5026212;28;44469;-91
2023/03/16 05:51:47;;;;;;;;;;;17.90;59.90;;;;;;5042956;28;42849;-91
2023/03/16 05:54:13;;;;;;;;;;;18.00;61.10;;;;;;5050683;28;43280;-86
2023/03/16 05:57:00;;;;;;;;;;;18.10;61.10;;;;;;5062142;28;43831;-92
2023/03/16 05:59:26;;;;;;;;;;;18.00;60.10;;;;;;5043484;28;42982;-89
2023/03/16 06:01:51;;;;;;;;;;;18.10;61.40;;;;;;5057445;28;42979;-83
2023/03/16 06:04:17;;;;;;;;;;;18.10;61.50;;;;;;5049793;28;42806;-88
2023/03/16 06:06:42;;;;;;;;;;;18.00;61.30;;;;;;5058026;28;43787;-88
2023/03/16 06:09:08;;;;;;;;;;;17.90;62.10;;;;;;5045485;28;43619;-91
2023/03/16 06:11:33;;;;;;;;;;;18.00;62.20;;;;;;5044583;28;42934;-89
2023/03/16 06:14:00;;;;;;;;;;;18.30;62.40;;;;;;5045451;28;42869;-86
2023/03/16 06:16:25;;;;;;;;;;;18.00;61.00;;;;;;5045031;28;43278;-90
2023/03/16 06:18:51;;;;;;;;;;;17.80;56.10;;;;;;5044627;28;42862;-87
2023/03/16 06:21:16;;;;;;;;;;;17.40;53.00;;;;;;5059199;28;43176;-87
2023/03/16 06:23:42;;;;;;;;;;;17.30;51.10;;;;;;5063899;28;42953;-85
2023/03/16 06:26:07;;;;;;;;;;;17.00;50.40;;;;;;5050386;28;43013;-85
2023/03/16 06:28:33;;;;;;;;;;;16.80;50.20;;;;;;5064540;28;42903;-86
2023/03/16 06:30:58;;;;;;;;;;;16.70;49.90;;;;;;5058636;28;43669;-86
2023/03/16 06:33:24;;;;;;;;;;;16.60;49.50;;;;;;5043393;28;43117;-86
2023/03/16 06:35:50;;;;;;;;;;;16.50;49.60;;;;;;5036972;28;45415;-86
2023/03/16 06:38:16;;;;;;;;;;;16.40;49.60;;;;;;5045744;28;42893;-84
2023/03/16 06:40:41;;;;;;;;;;;16.40;50.10;;;;;;5042590;28;44577;-83
2023/03/16 06:43:07;;;;;;;;;;;16.40;50.10;;;;;;5060420;28;43250;-82
2023/03/16 06:45:32;;;;;;;;;;;16.40;49.90;;;;;;5057080;28;42999;-80
2023/03/16 06:47:58;;;;;;;;;;;16.30;50.10;;;;;;5063444;28;43088;-80
2023/03/16 06:50:23;;;;;;;;;;;16.20;50.10;;;;;;5062744;28;43121;-77
2023/03/16 06:52:49;;;;;;;;;;;16.30;50.20;;;;;;5055028;28;43146;-79
2023/03/16 06:55:15;;;;;;;;;;;16.30;49.90;;;;;;5055636;28;43521;-79
2023/03/16 06:57:43;;;;;;;;;;;16.30;49.50;;;;;;5050203;28;42981;-78
2023/03/16 07:00:10;;;;;;;;;;;16.40;49.20;;;;;;5040755;28;44138;-87
2023/03/16 07:02:38;;;;;;;;;;;16.10;50.20;;;;;;5044428;28;43016;-86
2023/03/16 07:05:04;;;;;;;;;;;16.10;50.60;;;;;;5044462;28;43456;-84
2023/03/16 07:07:30;;;;;;;;;;;16.20;50.20;;;;;;5043698;28;43149;-89
2023/03/16 07:09:55;;;;;;;;;;;16.20;50.60;;;;;;5043453;28;43067;-87
2023/03/16 07:12:28;;;;;;;;;;;16.00;50.30;;;;;;5043008;28;42881;-90
2023/03/16 07:14:54;;;;;;;;;;;16.30;50.30;;;;;;5030985;28;44497;-83
2023/03/16 07:17:19;;;;;;;;;;;16.30;51.20;;;;;;5063127;28;43227;-82
2023/03/16 07:19:45;;;;;;;;;;;16.30;50.70;;;;;;5062159;28;44523;-83
2023/03/16 07:22:11;;;;;;;;;;;16.40;50.90;;;;;;5064594;28;42920;-83
2023/03/16 07:24:37;;;;;;;;;;;16.40;50.60;;;;;;5064364;28;42928;-83
2023/03/16 07:27:02;;;;;;;;;;;16.30;50.30;;;;;;5064037;28;42952;-83
2023/03/16 07:29:28;;;;;;;;;;;16.30;50.30;;;;;;5064155;28;42770;-82
2023/03/16 07:31:56;;;;;;;;;;;16.50;51.00;;;;;;5063887;28;42941;-81
2023/03/16 07:34:21;;;;;;;;;;;16.50;50.20;;;;;;5046030;28;43656;-80
2023/03/16 07:36:51;;;;;;;;;;;16.50;50.10;;;;;;5064388;28;43134;-83
2023/03/16 07:39:17;;;;;;;;;;;16.30;49.20;;;;;;5064357;28;42933;-80
2023/03/16 07:41:42;;;;;;;;;;;16.50;49.90;;;;;;5064103;28;43045;-83
2023/03/16 07:44:10;;;;;;;;;;;16.40;49.80;;;;;;5063985;28;42948;-81
2023/03/16 07:46:35;;;;;;;;;;;16.50;49.60;;;;;;5064173;28;42997;-83
2023/03/16 07:49:01;;;;;;;;;;;16.50;49.50;;;;;;5064033;28;43019;-81
2023/03/16 07:51:27;;;;;;;;;;;16.30;50.10;;;;;;5064579;28;42991;-83
2023/03/16 07:53:52;;;;;;;;;;;16.30;49.70;;;;;;5064256;28;42916;-82
2023/03/16 07:56:18;;;;;;;;;;;16.40;49.30;;;;;;5064076;28;43029;-83
2023/03/16 07:58:44;;;;;;;;;;;16.60;49.90;;;;;;5063707;28;43464;-82
2023/03/16 08:01:10;;;;;;;;;;;16.60;49.10;;;;;;5045612;28;43083;-82
2023/03/16 08:03:36;;;;;;;;;;;16.50;48.80;;;;;;5067015;28;43403;-83
2023/03/16 08:06:04;;;;;;;;;;;16.50;49.30;;;;;;5067103;28;42989;-82
2023/03/16 08:08:30;;;;;;;;;;;16.60;49.40;;;;;;5066852;28;43926;-82
2023/03/16 08:10:55;;;;;;;;;;;16.70;49.50;;;;;;5066876;28;43027;-82
2023/03/16 08:13:21;;;;;;;;;;;16.60;49.40;;;;;;5047989;28;44882;-82
2023/03/16 08:15:47;;;;;;;;;;;16.50;49.40;;;;;;5048452;28;42980;-83
2023/03/16 08:18:13;;;;;;;;;;;16.50;49.60;;;;;;5067150;28;43521;-83
2023/03/16 08:20:39;;;;;;;;;;;16.60;49.60;;;;;;5067216;28;42928;-83
2023/03/16 08:23:05;;;;;;;;;;;16.80;49.90;;;;;;5067206;28;43608;-83
2023/03/16 08:25:30;;;;;;;;;;;16.80;49.60;;;;;;5066998;28;42933;-83
2023/03/16 08:27:57;;;;;;;;;;;16.70;49.40;;;;;;5065844;28;43629;-83
2023/03/16 08:30:22;;;;;;;;;;;16.80;49.30;;;;;;5066915;28;42920;-83
2023/03/16 08:32:49;;;;;;;;;;;16.80;49.30;;;;;;5067049;28;42938;-83
2023/03/16 08:35:15;;;;;;;;;;;16.80;49.90;;;;;;5067246;28;42947;-83
2023/03/16 08:37:41;;;;;;;;;;;16.80;49.20;;;;;;5066983;28;42836;-82
2023/03/16 08:40:12;;;;;;;;;;;16.70;49.50;;;;;;5066857;28;42894;-83
2023/03/16 08:42:38;;;;;;;;;;;16.90;49.60;;;;;;5066796;28;42998;-83
2023/03/16 08:45:08;;;;;;;;;;;16.80;49.20;;;;;;5067091;28;42991;-81
2023/03/16 08:47:34;;;;;;;;;;;16.80;48.80;;;;;;5066985;28;43551;-83
2023/03/16 08:50:00;;;;;;;;;;;16.70;49.70;;;;;;5067235;28;43061;-83
2023/03/16 08:52:26;;;;;;;;;;;16.60;49.90;;;;;;5066715;28;42885;-82
2023/03/16 08:54:51;;;;;;;;;;;16.80;49.60;;;;;;5066405;28;42794;-83
2023/03/16 08:57:17;;;;;;;;;;;16.90;49.30;;;;;;5063951;28;44294;-84
2023/03/16 08:59:43;;;;;;;;;;;16.60;49.50;;;;;;5066148;28;42950;-83
2023/03/16 09:02:11;;;;;;;;;;;16.40;49.20;;;;;;5066626;28;43753;-83
2023/03/16 09:04:36;;;;;;;;;;;16.30;49.60;;;;;;5066443;28;43097;-83
2023/03/16 09:07:02;;;;;;;;;;;16.40;50.10;;;;;;5066671;28;43353;-83
2023/03/16 09:09:29;;;;;;;;;;;16.50;50.20;;;;;;5066550;28;42952;-84
2023/03/16 09:11:55;;;;;;;;;;;16.50;50.50;;;;;;5065901;28;43699;-82
2023/03/16 09:14:22;;;;;;;;;;;16.30;50.60;;;;;;5066085;28;42765;-84
2023/03/16 09:16:47;;;;;;;;;;;16.50;50.90;;;;;;5065908;28;44211;-83
2023/03/16 09:19:13;;;;;;;;;;;16.50;50.80;;;;;;5064957;28;42804;-84
2023/03/16 09:21:38;;;;;;;;;;;16.50;50.90;;;;;;5066060;28;42935;-84
2023/03/16 09:24:06;;;;;;;;;;;16.60;51.10;;;;;;5066172;28;42930;-83
2023/03/16 09:26:32;;;;;;;;;;;16.60;50.70;;;;;;5065948;28;42921;-84
2023/03/16 09:28:57;;;;;;;;;;;16.60;50.90;;;;;;5065475;28;42959;-84
2023/03/16 09:31:23;;;;;;;;;;;16.60;50.80;;;;;;5065463;28;42978;-84
2023/03/16 09:33:48;;;;;;;;;;;16.50;51.70;;;;;;5066249;28;42960;-83
2023/03/16 09:36:14;;;;;;;;;;;16.30;52.00;;;;;;5066232;28;43441;-84
2023/03/16 09:38:41;;;;;;;;;;;16.50;52.20;;;;;;5066014;28;42833;-83
2023/03/16 09:41:08;;;;;;;;;;;16.40;52.40;;;;;;5065986;28;43350;-84
2023/03/16 09:43:52;;;;;;;;;;;16.40;52.30;;;;;;5065780;28;43051;-84
2023/03/16 09:46:25;;;;;;;;;;;16.40;51.50;;;;;;5065547;28;42981;-85
2023/03/16 09:48:52;;;;;;;;;;;16.40;52.60;;;;;;5065294;28;42996;-84
2023/03/16 09:51:33;;;;;;;;;;;16.50;52.40;;;;;;5065707;28;42896;-84
2023/03/16 09:54:01;;;;;;;;;;;16.60;51.40;;;;;;5065701;28;43158;-84
2023/03/16 09:56:36;;;;;;;;;;;16.50;52.60;;;;;;5065667;28;42749;-84
2023/03/16 09:59:09;;;;;;;;;;;16.90;51.70;;;;;;5066086;28;42908;-83
2023/03/16 10:01:34;;;;;;;;;;;16.60;52.70;;;;;;5065834;28;43560;-84
2023/03/16 10:04:12;;;;;;;;;;;16.60;52.80;;;;;;5065684;28;42929;-83
2023/03/16 10:06:44;;;;;;;;;;;16.50;52.00;;;;;;5065810;28;42859;-83
2023/03/16 10:09:10;;;;;;;;;;;16.50;53.20;;;;;;5065822;28;42986;-83
2023/03/16 10:11:41;;;;;;;;;;;16.40;53.20;;;;;;5065681;28;42969;-83
2023/03/16 10:14:10;;;;;;;;;;;16.40;52.10;;;;;;5065922;28;42862;-83
2023/03/16 10:16:42;;;;;;;;;;;16.40;52.20;;;;;;5063732;28;44845;-84
2023/03/16 10:19:13;;;;;;;;;;;16.50;52.30;;;;;;5065402;28;42991;-83
2023/03/16 10:21:39;;;;;;;;;;;16.50;52.40;;;;;;5065198;28;43448;-84
2023/03/16 10:24:15;;;;;;;;;;;16.60;53.10;;;;;;5064291;28;43053;-84
2023/03/16 10:26:43;;;;;;;;;;;16.60;52.00;;;;;;5064562;28;43562;-84
2023/03/16 10:29:11;;;;;;;;;;;16.30;53.30;;;;;;5064934;28;42913;-84
2023/03/16 10:31:40;;;;;;;;;;;16.30;53.50;;;;;;5065041;28;43037;-84
2023/03/16 10:34:06;;;;;;;;;;;16.10;53.80;;;;;;5065354;28;42892;-84
2023/03/16 10:36:33;;;;;;;;;;;16.20;54.50;;;;;;5065159;28;43570;-84
2023/03/16 10:39:00;;;;;;;;;;;16.20;54.50;;;;;;5064381;28;43011;-83
2023/03/16 10:41:30;;;;;;;;;;;16.40;54.50;;;;;;5064728;28;43418;-83
2023/03/16 10:44:08;;;;;;;;;;;16.60;54.10;;;;;;5065318;28;43005;-84
2023/03/16 10:46:42;;;;;;;;;;;16.50;53.30;;;;;;5046848;28;43544;-83
2023/03/16 10:49:20;;;;;;;;;;;16.30;53.30;;;;;;5064964;28;42905;-84
2023/03/16 10:51:45;;;;;;;;;;;16.40;53.40;;;;;;5064912;28;42980;-83
2023/03/16 10:54:18;;;;;;;;;;;16.40;54.30;;;;;;5064820;28;42781;-84
2023/03/16 10:56:44;;;;;;;;;;;16.00;53.40;;;;;;5064535;28;44398;-83
2023/03/16 10:59:14;;;;;;;;;;;16.20;54.70;;;;;;5064529;28;43467;-83
2023/03/16 11:01:43;;;;;;;;;;;16.20;53.90;;;;;;5065012;28;42915;-84
2023/03/16 11:04:12;;;;;;;;;;;16.60;55.10;;;;;;5064908;28;42920;-84
2023/03/16 11:06:46;;;;;;;;;;;16.30;54.60;;;;;;5064078;28;43715;-83
2023/03/16 11:09:13;;;;;;;;;;;16.40;54.60;;;;;;5064663;28;43075;-84
2023/03/16 11:11:38;;;;;;;;;;;16.50;54.40;;;;;;5064726;28;42833;-84
2023/03/16 11:14:10;;;;;;;;;;;16.40;54.40;;;;;;5065078;28;43025;-84
2023/03/16 11:16:38;;;;;;;;;;;16.50;54.30;;;;;;5045912;28;44538;-83
2023/03/16 11:19:03;;;;;;;;;;;16.60;54.20;;;;;;5064561;28;42907;-84
2023/03/16 11:21:45;;;;;;;;;;;16.60;54.10;;;;;;5063695;28;43544;-83
2023/03/16 11:24:18;;;;;;;;;;;16.60;52.90;;;;;;5063813;28;42927;-84
2023/03/16 11:26:46;;;;;;;;;;;16.60;52.70;;;;;;5063656;28;42823;-84
2023/03/16 11:29:31;;;;;;;;;;;16.70;53.70;;;;;;5064302;28;42931;-84
2023/03/16 11:32:00;;;;;;;;;;;16.70;52.60;;;;;;5064457;28;42879;-84
2023/03/16 11:34:27;;;;;;;;;;;16.70;52.80;;;;;;5064734;28;43005;-83
2023/03/16 11:36:54;;;;;;;;;;;16.70;52.70;;;;;;5067485;28;42888;-84
2023/03/16 11:39:30;;;;;;;;;;;16.60;52.50;;;;;;5067860;28;42976;-84
2023/03/16 11:42:14;;;;;;;;;;;16.70;51.50;;;;;;5067659;28;43845;-84
2023/03/16 11:45:15;;;;;;;;;;;16.70;51.30;;;;;;5067554;28;43012;-83
2023/03/16 11:47:59;;;;;;;;;;;16.70;51.10;;;;;;4985452;28;42911;-84
2023/03/16 11:50:33;;;;;;;;;;;16.60;51.30;;;;;;4984480;28;43128;-84
2023/03/16 11:53:06;;;;;;;;;;;16.70;51.40;;;;;;4983830;28;43614;-83
2023/03/16 11:55:31;;;;;;;;;;;16.70;52.10;;;;;;4984573;28;42982;-85
2023/03/16 11:58:06;;;;;;;;;;;16.90;52.40;;;;;;4984538;28;43028;-85
2023/03/16 12:00:35;;;;;;;;;;;16.90;51.20;;;;;;4984265;28;43051;-84
2023/03/16 12:03:21;;;;;;;;;;;16.80;51.20;;;;;;4966228;28;43596;-81
2023/03/16 12:05:56;;;;;;;;;;;16.80;51.20;;;;;;4982120;28;43013;-83
2023/03/16 12:08:48;;;;;;;;;;;16.90;51.50;;;;;;4978435;28;43671;-89
2023/03/16 12:11:23;;;;;;;;;;;17.00;51.70;;;;;;4969518;28;42949;-93
2023/03/16 12:14:07;;;;;;;;;;;17.10;51.50;;;;;;4974321;28;44293;-92
2023/03/16 12:16:39;;;;;;;;;;;19.20;53.00;;;;;;4964338;28;43053;-92
2023/03/16 12:19:18;;;;;;;;;;;16.90;51.70;;;;;;4969089;28;44056;-91
2023/03/16 12:22:03;;;;;;;;;;;17.00;52.80;;;;;;5016699;28;43228;-92
2023/03/16 12:24:42;;;;;;;;;;;17.00;51.90;;;;;;5046073;28;43371;-92
2023/03/16 12:27:16;;;;;;;;;;;17.00;52.00;;;;;;5029174;28;43014;-91
2023/03/16 12:33:00;;;;;;;;;;;17.10;52.70;;;;;;5047018;28;42972;-92
2023/03/16 12:35:40;;;;;;;;;;;17.10;52.70;;;;;;5027727;28;45003;-91
2023/03/16 12:38:27;;;;;;;;;;;17.00;52.90;;;;;;5027702;28;43012;-92
2023/03/16 12:41:02;;;;;;;;;;;17.20;52.60;;;;;;5046065;28;43033;-89
2023/03/16 12:43:45;;;;;;;;;;;17.10;52.60;;;;;;5028316;28;42998;-91
2023/03/16 12:46:14;;;;;;;;;;;17.20;52.70;;;;;;5028406;28;44394;-91
2023/03/16 12:48:43;;;;;;;;;;;17.10;53.20;;;;;;5028194;28;43450;-90
2023/03/16 12:51:09;;;;;;;;;;;17.00;53.60;;;;;;5027760;28;44059;-88
2023/03/16 12:53:50;;;;;;;;;;;17.10;53.80;;;;;;5047255;28;42911;-86
2023/03/16 12:56:17;;;;;;;;;;;17.20;53.30;;;;;;5031773;28;44124;-87
2023/03/16 12:58:47;;;;;;;;;;;17.20;53.50;;;;;;5056705;28;43026;-88
2023/03/16 13:01:14;;;;;;;;;;;17.20;52.60;;;;;;5054374;28;43733;-88
2023/03/16 13:03:40;;;;;;;;;;;17.10;53.30;;;;;;5060306;28;42904;-88
2023/03/16 13:06:15;;;;;;;;;;;17.10;53.40;;;;;;5051273;28;43651;-87
2023/03/16 13:08:46;;;;;;;;;;;17.00;53.40;;;;;;5046778;28;42893;-88
2023/03/16 13:11:16;;;;;;;;;;;17.10;52.40;;;;;;5063547;28;43843;-87
2023/03/16 13:14:00;;;;;;;;;;;16.90;52.70;;;;;;5047928;28;42968;-87
2023/03/16 13:16:30;;;;;;;;;;;17.00;52.40;;;;;;5065891;28;43410;-87
2023/03/16 13:18:56;;;;;;;;;;;17.10;52.90;;;;;;5065418;28;42956;-88
2023/03/16 13:21:24;;;;;;;;;;;17.20;52.30;;;;;;5064928;28;42998;-88
2023/03/16 13:23:58;;;;;;;;;;;16.90;51.80;;;;;;5060137;28;43046;-88
2023/03/16 13:26:32;;;;;;;;;;;17.10;51.90;;;;;;5046791;28;43877;-87
2023/03/16 13:29:00;;;;;;;;;;;17.10;52.50;;;;;;5047228;28;43093;-87
2023/03/16 13:31:26;;;;;;;;;;;17.10;52.70;;;;;;5045261;28;42985;-88
2023/03/16 13:33:55;;;;;;;;;;;17.20;52.70;;;;;;5027576;28;43116;-88
2023/03/16 13:36:22;;;;;;;;;;;17.10;52.10;;;;;;5052733;28;43839;-88
2023/03/16 13:38:54;;;;;;;;;;;17.20;52.80;;;;;;5048092;28;42992;-88
2023/03/16 13:41:20;;;;;;;;;;;17.10;52.40;;;;;;5027224;28;45532;-88
2023/03/16 13:43:46;;;;;;;;;;;17.20;53.10;;;;;;5058148;28;42956;-87
2023/03/16 15:31:13;;;;;;;;;;;17.40;54.30;;;;;;5715587;22;43864;-94
2023/03/16 15:36:29;;;;;;;;;;;17.60;53.90;;;;;;5009252;28;42911;-94
2023/03/16 15:39:01;;;;;;;;;;;17.50;54.80;;;;;;4990047;28;43125;-94
2023/03/16 15:41:26;;;;;;;;;;;17.60;54.00;;;;;;5017951;28;44049;-94
2023/03/16 15:44:03;;;;;;;;;;;17.60;54.90;;;;;;5001123;28;42985;-93
2023/03/16 15:46:29;;;;;;;;;;;17.60;55.00;;;;;;5008282;28;44247;-92
2023/03/16 15:48:55;;;;;;;;;;;17.30;54.90;;;;;;5022341;28;42965;-83
2023/03/16 15:51:23;;;;;;;;;;;17.50;55.00;;;;;;5017579;28;43485;-83
2023/03/16 15:53:51;;;;;;;;;;;17.50;55.60;;;;;;5007646;28;42850;-83
2023/03/16 15:56:20;;;;;;;;;;;17.60;55.20;;;;;;5026800;28;43329;-83
2023/03/16 15:58:46;;;;;;;;;;;17.50;55.80;;;;;;5026439;28;42965;-85
2023/03/16 16:01:22;;;;;;;;;;;17.80;55.70;;;;;;5005656;28;45613;-85
2023/03/16 16:03:48;;;;;;;;;;;17.50;55.80;;;;;;5015168;28;42942;-85
2023/03/16 16:06:13;;;;;;;;;;;17.60;55.40;;;;;;5004897;28;44306;-87
2023/03/16 16:08:39;;;;;;;;;;;17.60;55.50;;;;;;5006345;28;42870;-86
2023/03/16 16:11:08;;;;;;;;;;;17.50;56.10;;;;;;5005948;28;43237;-88
2023/03/16 16:13:34;;;;;;;;;;;17.50;55.80;;;;;;5006875;28;43130;-85
2023/03/16 16:16:00;;;;;;;;;;;17.50;55.40;;;;;;5024719;28;43273;-86
2023/03/16 16:18:31;;;;;;;;;;;17.40;55.60;;;;;;5007745;28;43205;-86
2023/03/16 16:20:57;;;;;;;;;;;17.70;55.30;;;;;;5026185;28;43529;-85
2023/03/16 16:23:24;;;;;;;;;;;17.60;55.70;;;;;;5008031;28;42953;-86